Terminal Aerodrome Forecast
Issued by NWS

Home | Current Version | Previous Version | Text Only | Print | Product List | Glossary On
Versions: 1 2 3 4 5 6 7 8 9 10 11 12 13 14 15 16
000
FTUS42 KILM 070528
TAFCRE
TAF
KCRE 070528Z 0706/0806 03010KT P6SM FEW045 BKN200
     FM071200 04012KT 6SM -RA VCSH FEW015 BKN040 OVC120
     FM071400 04016G24KT 3SM SHRA SCT006 BKN014 OVC080=

USA.gov is the U.S. government's official web portal to all federal, state and local government web resources and services.